Time;durP1;ratioP1;P1;durP2;ratioP2;P2;SDS_P1;SDS_P2;PMS_P1;PMS_P2;Temp;Humidity;BMP_temperature;BMP_pressure;BME280_temperature;BME280_humidity;BME280_pressure;Samples;Min_cycle;Max_cycle;Signal;HPM_P1;HPM_P2
2022/09/22 00:00:03;;;;;;;15.43;7.35;;;;;;;;;;4934561;28;20452;-68
2022/09/22 00:02:34;;;;;;;13.70;7.05;;;;;;;;;;4932267;29;20051;-68
2022/09/22 00:05:05;;;;;;;15.68;6.70;;;;;;;;;;4932815;29;20559;-68
2022/09/22 00:07:36;;;;;;;13.82;7.35;;;;;;;;;;4932543;29;20400;-68
2022/09/22 00:10:08;;;;;;;15.05;7.07;;;;;;;;;;4947518;28;20048;-68
2022/09/22 00:12:38;;;;;;;14.82;7.20;;;;;;;;;;4891545;29;20403;-68
2022/09/22 00:15:10;;;;;;;17.63;7.57;;;;;;;;;;4922354;29;20563;-68
2022/09/22 00:17:41;;;;;;;15.27;7.38;;;;;;;;;;4900712;29;20055;-68
2022/09/22 00:20:12;;;;;;;16.02;7.22;;;;;;;;;;4932391;29;20460;-68
2022/09/22 00:22:43;;;;;;;15.93;8.15;;;;;;;;;;4951253;28;20055;-68
2022/09/22 00:25:15;;;;;;;15.38;7.90;;;;;;;;;;4961414;28;20070;-68
2022/09/22 00:27:45;;;;;;;17.85;7.45;;;;;;;;;;4938563;28;20063;-68
2022/09/22 00:30:15;;;;;;;16.52;8.02;;;;;;;;;;4970396;28;20043;-68
2022/09/22 00:32:46;;;;;;;16.15;7.63;;;;;;;;;;4970590;28;20059;-68
2022/09/22 00:35:17;;;;;;;16.85;7.57;;;;;;;;;;4970236;28;20507;-68
2022/09/22 00:37:48;;;;;;;17.67;8.10;;;;;;;;;;4980889;28;20131;-68
2022/09/22 00:40:18;;;;;;;19.80;8.00;;;;;;;;;;5021287;28;20065;-68
2022/09/22 00:42:49;;;;;;;15.25;7.20;;;;;;;;;;5016357;28;20509;-68
2022/09/22 00:45:19;;;;;;;15.25;7.05;;;;;;;;;;5048770;28;20527;-68
2022/09/22 00:47:50;;;;;;;16.85;7.43;;;;;;;;;;5026769;28;20056;-67
2022/09/22 00:50:23;;;;;;;18.20;6.93;;;;;;;;;;5035789;28;20509;-68
2022/09/22 00:53:00;;;;;;;13.85;6.75;;;;;;;;;;5068623;28;20048;-68
2022/09/22 00:56:06;;;;;;;17.38;7.72;;;;;;;;;;5068968;28;20071;-67
2022/09/22 00:59:00;;;;;;;16.70;7.35;;;;;;;;;;5068932;28;20053;-67
2022/09/22 01:01:32;;;;;;;14.48;6.32;;;;;;;;;;5088476;28;20052;-68
2022/09/22 01:04:04;;;;;;;14.95;6.63;;;;;;;;;;5089050;28;20064;-67
2022/09/22 01:06:38;;;;;;;19.45;6.90;;;;;;;;;;5088882;28;20044;-67
2022/09/22 01:09:09;;;;;;;14.82;6.95;;;;;;;;;;5038439;28;20084;-68
2022/09/22 01:11:40;;;;;;;15.88;6.20;;;;;;;;;;5088787;28;20059;-68
2022/09/22 01:14:17;;;;;;;14.27;6.97;;;;;;;;;;5088731;28;20059;-67
2022/09/22 01:16:57;;;;;;;15.75;7.32;;;;;;;;;;5088892;28;20056;-67
2022/09/22 01:19:54;;;;;;;15.88;7.00;;;;;;;;;;5090671;28;20055;-68
2022/09/22 01:22:57;;;;;;;13.02;6.80;;;;;;;;;;5104389;28;20063;-68
2022/09/22 01:25:38;;;;;;;13.13;5.97;;;;;;;;;;5091178;28;20049;-68
2022/09/22 01:28:20;;;;;;;16.65;6.38;;;;;;;;;;5088375;28;20051;-68
2022/09/22 01:31:04;;;;;;;16.52;7.22;;;;;;;;;;5088824;28;20067;-68
2022/09/22 01:33:35;;;;;;;16.30;6.78;;;;;;;;;;5088705;28;20060;-68
2022/09/22 01:36:20;;;;;;;15.23;6.45;;;;;;;;;;5055310;28;20060;-67
2022/09/22 01:38:51;;;;;;;13.88;6.07;;;;;;;;;;5088697;28;20040;-67
2022/09/22 01:41:44;;;;;;;15.23;6.97;;;;;;;;;;5038078;28;20566;-68
2022/09/22 01:44:36;;;;;;;16.52;6.40;;;;;;;;;;5088842;28;20048;-68
2022/09/22 01:47:34;;;;;;;14.70;6.50;;;;;;;;;;5028836;28;20069;-68
2022/09/22 01:50:28;;;;;;;13.88;6.43;;;;;;;;;;5032553;28;20516;-68
2022/09/22 01:53:02;;;;;;;15.40;6.65;;;;;;;;;;5016208;28;20058;-68
2022/09/22 01:55:39;;;;;;;14.30;6.38;;;;;;;;;;5032362;28;20041;-68
2022/09/22 01:58:17;;;;;;;16.98;7.03;;;;;;;;;;5028332;28;20513;-67
2022/09/22 02:00:58;;;;;;;15.63;6.63;;;;;;;;;;4996252;28;20058;-68
2022/09/22 02:03:56;;;;;;;13.95;6.97;;;;;;;;;;5012382;28;20061;-68
2022/09/22 02:06:46;;;;;;;13.30;6.43;;;;;;;;;;4996374;28;20050;-68
2022/09/22 02:09:20;;;;;;;13.65;6.15;;;;;;;;;;5012768;28;20050;-68
2022/09/22 02:11:51;;;;;;;14.50;6.70;;;;;;;;;;4996269;28;20064;-68
2022/09/22 02:14:23;;;;;;;13.60;6.60;;;;;;;;;;4996058;28;20050;-67
2022/09/22 02:16:56;;;;;;;14.05;6.30;;;;;;;;;;4963738;28;20060;-68
2022/09/22 02:19:30;;;;;;;;;;;;;;;;;;5012799;28;20053;-68
2022/09/22 02:22:01;;;;;;;12.77;5.53;;;;;;;;;;5011738;28;19928;-68
2022/09/22 02:24:43;;;;;;;14.70;6.20;;;;;;;;;;5035278;28;20056;-68
2022/09/22 02:27:25;;;;;;;13.10;5.65;;;;;;;;;;5035184;28;20060;-68
2022/09/22 02:30:07;;;;;;;13.50;5.60;;;;;;;;;;5051790;28;20654;-67
2022/09/22 02:32:42;;;;;;;13.57;5.80;;;;;;;;;;5002058;28;20072;-68
2022/09/22 02:35:13;;;;;;;9.48;4.75;;;;;;;;;;5061723;28;20070;-67
2022/09/22 02:38:02;;;;;;;13.80;5.53;;;;;;;;;;5091895;28;20491;-67
2022/09/22 02:40:53;;;;;;;11.63;5.25;;;;;;;;;;5041625;28;20063;-68
2022/09/22 02:43:47;;;;;;;12.50;5.65;;;;;;;;;;5091707;28;20051;-68
2022/09/22 02:46:45;;;;;;;13.32;5.10;;;;;;;;;;5041395;28;20059;-68
2022/09/22 02:49:18;;;;;;;13.05;5.20;;;;;;;;;;5091361;28;20044;-68
2022/09/22 02:51:50;;;;;;;12.20;5.45;;;;;;;;;;5070912;28;20049;-67
2022/09/22 02:54:22;;;;;;;17.35;5.88;;;;;;;;;;5021291;28;21022;-67
2022/09/22 02:56:53;;;;;;;12.25;5.97;;;;;;;;;;5071137;28;20056;-68
2022/09/22 02:59:23;;;;;;;17.73;5.55;;;;;;;;;;5028009;28;20056;-67
2022/09/22 03:01:54;;;;;;;14.75;5.47;;;;;;;;;;5057645;28;20052;-67
2022/09/22 03:04:25;;;;;;;14.98;5.57;;;;;;;;;;5091081;28;20052;-68
2022/09/22 03:06:55;;;;;;;11.60;5.75;;;;;;;;;;5057667;28;20052;-67
2022/09/22 03:09:25;;;;;;;27.75;4.50;;;;;;;;;;5091133;28;20060;-68
2022/09/22 03:11:54;;;;;;;11.55;4.72;;;;;;;;;;5070702;28;20056;-68
2022/09/22 03:14:28;;;;;;;10.13;4.95;;;;;;;;;;5053861;28;20048;-67
2022/09/22 03:16:58;;;;;;;12.75;4.60;;;;;;;;;;5037582;28;20052;-68
2022/09/22 03:19:28;;;;;;;11.88;5.15;;;;;;;;;;5070634;28;20103;-67
2022/09/22 03:21:58;;;;;;;10.57;5.38;;;;;;;;;;5070781;28;20048;-68
2022/09/22 03:24:28;;;;;;;11.25;4.63;;;;;;;;;;5037309;28;20059;-67
2022/09/22 03:26:58;;;;;;;11.38;4.78;;;;;;;;;;5070562;28;20049;-68
2022/09/22 03:29:28;;;;;;;14.23;5.75;;;;;;;;;;5080416;28;20044;-68
2022/09/22 03:31:58;;;;;;;22.63;5.22;;;;;;;;;;5090759;28;20047;-67
2022/09/22 03:34:27;;;;;;;15.18;5.88;;;;;;;;;;5090504;28;20055;-68
2022/09/22 03:36:57;;;;;;;12.60;5.15;;;;;;;;;;5074010;28;20543;-68
2022/09/22 03:39:28;;;;;;;18.65;5.57;;;;;;;;;;5090654;28;20048;-68
2022/09/22 03:41:58;;;;;;;11.30;5.10;;;;;;;;;;5040416;28;20056;-68
2022/09/22 03:44:28;;;;;;;10.77;5.82;;;;;;;;;;5073689;28;20063;-68
2022/09/22 03:46:59;;;;;;;11.63;5.28;;;;;;;;;;5056699;28;20066;-68
2022/09/22 03:49:29;;;;;;;13.23;5.55;;;;;;;;;;5080386;28;20060;-68
2022/09/22 03:51:59;;;;;;;11.43;5.57;;;;;;;;;;5092723;28;20040;-68
2022/09/22 03:54:29;;;;;;;10.57;5.22;;;;;;;;;;5092738;28;20052;-67
2022/09/22 03:56:59;;;;;;;12.85;5.53;;;;;;;;;;5057199;28;20063;-68
2022/09/22 03:59:29;;;;;;;13.93;6.03;;;;;;;;;;5073421;28;20412;-68
2022/09/22 04:02:01;;;;;;;15.65;5.50;;;;;;;;;;5024073;28;20411;-68
2022/09/22 04:04:31;;;;;;;16.15;6.15;;;;;;;;;;5073598;28;20044;-68
2022/09/22 04:07:02;;;;;;;15.88;6.68;;;;;;;;;;5092590;28;20044;-68
2022/09/22 04:09:35;;;;;;;19.20;7.55;;;;;;;;;;5073299;28;20044;-68
2022/09/22 04:12:05;;;;;;;24.80;7.85;;;;;;;;;;5056588;28;20060;-68
2022/09/22 04:14:36;;;;;;;23.80;8.68;;;;;;;;;;5092304;28;20476;-67
2022/09/22 04:17:06;;;;;;;19.38;6.97;;;;;;;;;;5073815;28;20048;-68
2022/09/22 04:19:36;;;;;;;22.45;7.55;;;;;;;;;;5092260;28;20114;-68
2022/09/22 04:22:06;;;;;;;22.13;7.00;;;;;;;;;;5092344;28;20047;-68
2022/09/22 04:24:36;;;;;;;24.58;7.85;;;;;;;;;;5092375;28;20052;-68
2022/09/22 04:27:06;;;;;;;21.63;7.78;;;;;;;;;;5073117;28;20056;-68
2022/09/22 04:29:48;;;;;;;22.58;8.30;;;;;;;;;;5072784;28;20048;-69
2022/09/22 04:32:18;;;;;;;23.15;8.35;;;;;;;;;;5073036;28;20578;-69
2022/09/22 04:34:49;;;;;;;24.67;8.23;;;;;;;;;;5072853;28;20056;-69
2022/09/22 04:37:19;;;;;;;20.00;8.15;;;;;;;;;;5092014;28;20403;-69
2022/09/22 04:39:49;;;;;;;21.30;7.90;;;;;;;;;;5055415;28;20059;-69
2022/09/22 04:42:19;;;;;;;20.15;7.72;;;;;;;;;;5089373;28;20555;-69
2022/09/22 04:44:49;;;;;;;22.70;8.57;;;;;;;;;;5072775;28;20506;-69
2022/09/22 04:47:18;;;;;;;23.55;8.57;;;;;;;;;;5089262;28;20056;-69
2022/09/22 04:49:48;;;;;;;23.13;8.07;;;;;;;;;;5068765;28;20044;-69
2022/09/22 04:52:18;;;;;;;22.67;8.05;;;;;;;;;;5015378;28;20053;-69
2022/09/22 04:54:48;;;;;;;20.48;7.95;;;;;;;;;;5048672;28;20057;-69
2022/09/22 04:57:18;;;;;;;24.40;7.82;;;;;;;;;;5048778;28;20061;-69
2022/09/22 04:59:48;;;;;;;22.35;7.85;;;;;;;;;;5028961;28;20057;-69
2022/09/22 05:02:18;;;;;;;18.95;7.68;;;;;;;;;;5012189;28;20057;-69
2022/09/22 05:04:48;;;;;;;19.77;8.05;;;;;;;;;;5028917;28;20057;-69
2022/09/22 05:07:18;;;;;;;20.75;7.20;;;;;;;;;;5028776;28;20053;-69
2022/09/22 05:09:48;;;;;;;18.60;7.53;;;;;;;;;;5028833;28;20512;-69
2022/09/22 05:12:19;;;;;;;18.60;7.45;;;;;;;;;;5028736;28;20053;-69
2022/09/22 05:14:49;;;;;;;19.90;7.60;;;;;;;;;;5012081;28;20057;-69
2022/09/22 05:17:19;;;;;;;17.48;6.88;;;;;;;;;;5028547;28;20057;-69
2022/09/22 05:19:49;;;;;;;17.95;6.93;;;;;;;;;;5008808;28;20414;-69
2022/09/22 05:22:21;;;;;;;21.80;7.35;;;;;;;;;;5008364;28;20077;-69
2022/09/22 05:24:51;;;;;;;16.85;7.07;;;;;;;;;;5009058;28;20557;-69
2022/09/22 05:27:21;;;;;;;17.25;7.22;;;;;;;;;;5027307;28;20408;-69
2022/09/22 05:29:51;;;;;;;16.60;6.85;;;;;;;;;;5048710;28;20060;-69
2022/09/22 05:32:22;;;;;;;15.77;6.90;;;;;;;;;;5048494;28;20053;-69
2022/09/22 05:34:52;;;;;;;17.83;7.47;;;;;;;;;;5048259;28;20053;-68
2022/09/22 05:37:22;;;;;;;16.92;6.97;;;;;;;;;;5058208;28;20057;-69
2022/09/22 05:39:52;;;;;;;15.77;7.07;;;;;;;;;;5035143;28;20057;-69
2022/09/22 05:42:22;;;;;;;17.38;6.43;;;;;;;;;;5018636;28;20063;-69
2022/09/22 05:44:54;;;;;;;15.15;6.95;;;;;;;;;;5012186;28;20072;-69
2022/09/22 05:47:23;;;;;;;16.05;6.88;;;;;;;;;;5012509;28;20061;-69
2022/09/22 05:49:55;;;;;;;12.48;5.93;;;;;;;;;;5028500;28;20077;-69
2022/09/22 05:52:25;;;;;;;13.65;6.65;;;;;;;;;;5028287;28;20569;-69
2022/09/22 05:54:56;;;;;;;15.07;6.47;;;;;;;;;;5028588;28;20417;-68
2022/09/22 05:57:26;;;;;;;14.77;6.75;;;;;;;;;;5047894;28;20064;-69
2022/09/22 05:59:56;;;;;;;13.20;6.18;;;;;;;;;;5034883;28;20068;-69
2022/09/22 06:02:26;;;;;;;12.25;5.72;;;;;;;;;;5035160;28;20060;-69
2022/09/22 06:04:56;;;;;;;15.07;5.75;;;;;;;;;;4995185;28;20057;-68
2022/09/22 06:07:26;;;;;;;14.30;5.85;;;;;;;;;;4995165;28;20491;-68
2022/09/22 06:09:57;;;;;;;13.65;5.93;;;;;;;;;;5028207;28;20409;-69
2022/09/22 06:12:27;;;;;;;14.75;6.07;;;;;;;;;;5028236;28;20062;-68
2022/09/22 06:14:57;;;;;;;10.93;5.82;;;;;;;;;;4996010;28;20054;-68
2022/09/22 06:17:27;;;;;;;12.25;5.80;;;;;;;;;;5028807;28;20485;-68
2022/09/22 06:19:59;;;;;;;13.77;5.78;;;;;;;;;;4979632;28;20054;-68
2022/09/22 06:22:29;;;;;;;11.55;5.13;;;;;;;;;;5031095;28;20087;-69
2022/09/22 06:25:00;;;;;;;12.73;5.03;;;;;;;;;;5068090;28;20539;-68
2022/09/22 06:27:31;;;;;;;10.27;5.00;;;;;;;;;;5068188;28;20518;-68
2022/09/22 06:30:01;;;;;;;12.02;5.22;;;;;;;;;;5068106;28;20056;-68
2022/09/22 06:32:32;;;;;;;15.75;5.90;;;;;;;;;;5034403;28;20063;-68
2022/09/22 06:35:01;;;;;;;12.77;5.80;;;;;;;;;;5071167;28;20044;-68
2022/09/22 06:37:31;;;;;;;11.07;5.03;;;;;;;;;;5094467;28;20480;-68
2022/09/22 06:40:02;;;;;;;12.18;5.25;;;;;;;;;;5094207;28;20055;-68
2022/09/22 06:42:31;;;;;;;9.75;5.40;;;;;;;;;;5094052;28;20048;-68
2022/09/22 06:45:03;;;;;;;11.60;5.43;;;;;;;;;;5093938;28;20477;-66
2022/09/22 06:47:34;;;;;;;12.45;5.53;;;;;;;;;;5094120;28;20051;-66
2022/09/22 06:50:04;;;;;;;13.05;5.10;;;;;;;;;;5092877;28;20048;-68
2022/09/22 06:52:36;;;;;;;9.52;4.78;;;;;;;;;;5094145;28;20047;-70
2022/09/22 06:55:09;;;;;;;12.32;5.28;;;;;;;;;;5091537;28;20403;-69
2022/09/22 06:57:39;;;;;;;11.35;5.50;;;;;;;;;;5058166;28;20056;-70
2022/09/22 07:00:10;;;;;;;11.32;5.28;;;;;;;;;;5040759;28;20051;-68
2022/09/22 07:02:41;;;;;;;10.57;5.38;;;;;;;;;;5091356;28;20063;-70
2022/09/22 07:05:12;;;;;;;11.23;5.05;;;;;;;;;;5074026;28;20055;-69
2022/09/22 07:07:42;;;;;;;16.48;5.57;;;;;;;;;;5057728;28;20052;-69
2022/09/22 07:10:12;;;;;;;11.00;5.55;;;;;;;;;;5090935;28;20055;-68
2022/09/22 07:12:42;;;;;;;10.98;5.57;;;;;;;;;;5091411;28;20048;-68
2022/09/22 07:15:12;;;;;;;10.95;5.38;;;;;;;;;;5040592;28;20467;-68
2022/09/22 07:17:42;;;;;;;12.90;5.88;;;;;;;;;;5057519;28;20052;-68
2022/09/22 07:20:14;;;;;;;13.13;5.82;;;;;;;;;;5041244;28;20067;-67
2022/09/22 07:22:44;;;;;;;17.23;6.13;;;;;;;;;;5090900;28;20143;-67
2022/09/22 07:25:15;;;;;;;15.60;6.65;;;;;;;;;;5057299;28;20052;-67
2022/09/22 07:27:47;;;;;;;15.05;6.85;;;;;;;;;;5070866;28;20052;-67
2022/09/22 07:30:20;;;;;;;;;;;;;;;;;;5021278;28;20076;-67
2022/09/22 07:32:50;;;;;;;13.55;6.15;;;;;;;;;;5053650;28;19920;-67
2022/09/22 07:35:20;;;;;;;12.25;5.85;;;;;;;;;;5070169;28;20447;-68
2022/09/22 07:37:58;;;;;;;16.73;6.72;;;;;;;;;;5081064;28;20072;-67
2022/09/22 07:40:28;;;;;;;12.98;6.18;;;;;;;;;;5090590;28;20056;-67
2022/09/22 07:42:59;;;;;;;14.30;5.90;;;;;;;;;;5090625;28;20047;-67
2022/09/22 07:45:29;;;;;;;12.57;6.22;;;;;;;;;;5089789;28;20052;-68
2022/09/22 07:50:53;;;;;;;14.30;5.85;;;;;;;;;;5090446;28;20059;-68
2022/09/22 07:53:26;;;;;;;14.52;6.43;;;;;;;;;;5090292;28;20056;-68
2022/09/22 07:56:05;;;;;;;13.00;6.15;;;;;;;;;;5090264;28;20504;-68
2022/09/22 07:58:35;;;;;;;12.20;6.22;;;;;;;;;;5069895;28;20048;-68
2022/09/22 08:01:06;;;;;;;13.25;5.75;;;;;;;;;;5069986;28;20064;-68
2022/09/22 08:03:38;;;;;;;;;;;;;;;;;;5020129;28;20049;-68
2022/09/22 08:06:10;;;;;;;11.88;5.15;;;;;;;;;;5070113;28;19931;-68
2022/09/22 08:08:41;;;;;;;12.60;5.68;;;;;;;;;;5069762;28;20052;-68
2022/09/22 08:11:14;;;;;;;11.27;5.22;;;;;;;;;;5069807;28;20063;-68
2022/09/22 08:14:06;;;;;;;12.93;6.05;;;;;;;;;;4996587;28;20038;-68
2022/09/22 08:16:38;;;;;;;11.38;5.68;;;;;;;;;;5029538;28;20049;-68
2022/09/22 08:19:14;;;;;;;12.02;6.00;;;;;;;;;;5029599;28;20061;-68
2022/09/22 08:21:46;;;;;;;11.10;5.57;;;;;;;;;;4980423;28;20049;-68
2022/09/22 08:24:21;;;;;;;11.85;5.93;;;;;;;;;;5029767;28;20066;-68
2022/09/22 08:26:55;;;;;;;11.48;6.00;;;;;;;;;;5029928;28;20037;-68
2022/09/22 08:29:25;;;;;;;10.82;4.97;;;;;;;;;;4996319;28;20044;-68
2022/09/22 08:31:55;;;;;;;11.32;5.53;;;;;;;;;;5069433;28;20693;-68
2022/09/22 08:34:25;;;;;;;10.65;5.07;;;;;;;;;;5003606;28;20475;-69
2022/09/22 08:36:55;;;;;;;10.40;4.82;;;;;;;;;;5069382;28;20057;-69
2022/09/22 08:39:25;;;;;;;9.85;5.13;;;;;;;;;;5019397;28;20056;-69
2022/09/22 08:42:04;;;;;;;9.93;5.32;;;;;;;;;;5069249;28;20044;-68
2022/09/22 08:45:17;;;;;;;14.90;5.90;;;;;;;;;;5069198;28;20555;-69
2022/09/22 08:53:50;;;;;;;12.23;5.57;;;;;;;;;;5072661;28;20064;-69
2022/09/22 08:56:57;;;;;;;10.32;4.93;;;;;;;;;;5056228;28;20420;-68
2022/09/22 08:59:35;;;;;;;9.18;4.85;;;;;;;;;;4960700;28;20045;-69
2022/09/22 09:02:25;;;;;;;11.15;5.07;;;;;;;;;;4993455;28;20061;-70
2022/09/22 09:05:22;;;;;;;10.38;4.82;;;;;;;;;;5009265;28;20139;-68
2022/09/22 09:08:27;;;;;;;8.27;4.72;;;;;;;;;;5009200;28;20046;-67
2022/09/22 09:11:08;;;;;;;9.98;4.75;;;;;;;;;;5008951;28;20053;-67
2022/09/22 09:14:00;;;;;;;10.55;4.93;;;;;;;;;;4992983;28;20058;-67
2022/09/22 09:16:33;;;;;;;10.82;5.03;;;;;;;;;;5008789;28;20057;-67
2022/09/22 09:19:20;;;;;;;10.93;4.90;;;;;;;;;;4970002;28;20051;-66
2022/09/22 09:21:56;;;;;;;11.68;5.03;;;;;;;;;;4954412;28;20066;-67
2022/09/22 09:24:45;;;;;;;8.30;3.92;;;;;;;;;;4970000;28;20069;-66
2022/09/22 09:27:39;;;;;;;10.75;5.18;;;;;;;;;;4969904;28;20149;-66
2022/09/22 09:30:18;;;;;;;11.70;5.05;;;;;;;;;;4969958;28;20534;-66
2022/09/22 09:33:03;;;;;;;11.85;4.55;;;;;;;;;;4953587;28;20055;-66
2022/09/22 09:35:43;;;;;;;12.05;4.72;;;;;;;;;;4960529;28;20418;-66
2022/09/22 09:38:16;;;;;;;11.10;4.80;;;;;;;;;;5066053;28;20048;-66
2022/09/22 09:40:53;;;;;;;10.00;4.60;;;;;;;;;;5068596;28;20044;-67
2022/09/22 09:43:24;;;;;;;8.88;3.95;;;;;;;;;;5068592;28;20147;-66
2022/09/22 09:46:26;;;;;;;8.95;4.35;;;;;;;;;;5068581;28;20056;-66
2022/09/22 09:49:10;;;;;;;8.63;4.35;;;;;;;;;;5008892;28;20068;-66
2022/09/22 09:51:45;;;;;;;9.50;4.70;;;;;;;;;;5029003;28;20056;-67
2022/09/22 09:54:16;;;;;;;13.40;4.57;;;;;;;;;;5028749;28;20062;-66
2022/09/22 09:57:18;;;;;;;10.80;4.43;;;;;;;;;;5012077;28;20061;-67
2022/09/22 10:00:31;;;;;;;10.25;5.00;;;;;;;;;;5028382;28;20413;-67
2022/09/22 10:03:14;;;;;;;12.55;4.80;;;;;;;;;;5008407;28;20502;-67
2022/09/22 10:05:59;;;;;;;10.98;4.28;;;;;;;;;;5008638;28;20058;-67
2022/09/22 10:08:43;;;;;;;11.27;4.90;;;;;;;;;;4961020;28;20415;-67
2022/09/22 10:11:14;;;;;;;11.23;4.35;;;;;;;;;;5012441;28;20046;-66
2022/09/22 10:13:54;;;;;;;8.80;4.35;;;;;;;;;;4963378;28;20069;-66
2022/09/22 10:16:29;;;;;;;10.85;5.00;;;;;;;;;;4996036;28;20062;-66
2022/09/22 10:19:17;;;;;;;10.95;4.30;;;;;;;;;;5012367;28;20053;-67
2022/09/22 10:21:47;;;;;;;8.73;3.75;;;;;;;;;;5011996;28;20069;-67
2022/09/22 10:24:32;;;;;;;8.75;4.28;;;;;;;;;;5012545;28;20050;-67
2022/09/22 10:27:02;;;;;;;8.88;4.10;;;;;;;;;;5065711;28;20563;-67
2022/09/22 10:29:40;;;;;;;13.02;4.57;;;;;;;;;;5071939;28;20051;-66
2022/09/22 10:32:16;;;;;;;11.00;4.22;;;;;;;;;;5071601;28;20053;-67
2022/09/22 10:34:53;;;;;;;11.32;4.40;;;;;;;;;;5031358;28;20057;-67
2022/09/22 10:37:28;;;;;;;9.00;4.18;;;;;;;;;;5031594;28;20056;-67
2022/09/22 10:40:03;;;;;;;9.38;3.60;;;;;;;;;;5040329;28;20408;-68
2022/09/22 10:42:46;;;;;;;8.68;4.25;;;;;;;;;;5021826;28;20061;-67
2022/09/22 10:45:18;;;;;;;10.20;3.55;;;;;;;;;;5071496;28;20381;-67
2022/09/22 10:48:09;;;;;;;7.78;3.60;;;;;;;;;;5071500;28;20053;-67
2022/09/22 10:51:14;;;;;;;7.93;3.58;;;;;;;;;;5071273;28;21122;-67
2022/09/22 10:53:56;;;;;;;11.23;4.15;;;;;;;;;;5011512;28;20061;-67
2022/09/22 10:56:58;;;;;;;8.40;3.95;;;;;;;;;;5011791;28;20061;-66
2022/09/22 11:00:02;;;;;;;10.52;3.67;;;;;;;;;;4972736;28;20054;-66
2022/09/22 11:02:48;;;;;;;9.98;4.25;;;;;;;;;;4972421;28;20479;-65
2022/09/22 11:14:17;;;;;;;11.02;3.58;;;;;;;;;;4953041;29;20078;-66
2022/09/22 11:17:09;;;;;;;9.23;3.90;;;;;;;;;;4945507;29;20056;-66
2022/09/22 11:19:54;;;;;;;16.65;6.32;;;;;;;;;;4898157;29;20059;-66
2022/09/22 11:22:51;;;;;;;9.38;4.40;;;;;;;;;;4929725;29;20420;-66
2022/09/22 11:25:49;;;;;;;9.82;4.28;;;;;;;;;;4952521;29;20062;-67
2022/09/22 11:28:37;;;;;;;9.48;4.07;;;;;;;;;;4975157;28;20058;-67
2022/09/22 11:31:17;;;;;;;11.77;4.82;;;;;;;;;;4991239;28;20058;-67
2022/09/22 11:34:08;;;;;;;8.10;3.22;;;;;;;;;;4991188;28;20061;-66
2022/09/22 11:36:54;;;;;;;8.98;3.85;;;;;;;;;;5021693;28;20041;-66
2022/09/22 11:39:30;;;;;;;8.30;3.65;;;;;;;;;;5050452;28;20049;-67
2022/09/22 11:42:32;;;;;;;11.18;3.30;;;;;;;;;;5050573;28;20580;-67
2022/09/22 11:45:19;;;;;;;7.70;3.72;;;;;;;;;;4971606;28;20062;-66
2022/09/22 11:48:14;;;;;;;7.18;3.08;;;;;;;;;;4971532;28;20051;-66
2022/09/22 11:51:15;;;;;;;9.10;4.25;;;;;;;;;;4939380;28;20055;-66
2022/09/22 11:54:19;;;;;;;9.85;3.58;;;;;;;;;;4975709;28;20069;-67
2022/09/22 11:56:54;;;;;;;10.23;3.33;;;;;;;;;;4990722;28;20061;-66
2022/09/22 11:59:34;;;;;;;8.20;3.53;;;;;;;;;;4958587;28;20085;-66
2022/09/22 12:02:28;;;;;;;7.55;3.40;;;;;;;;;;4986053;28;20058;-67
2022/09/22 12:05:11;;;;;;;9.18;3.42;;;;;;;;;;4951798;29;20087;-67
2022/09/22 12:08:05;;;;;;;7.53;2.92;;;;;;;;;;4951706;28;20055;-66
2022/09/22 12:10:40;;;;;;;5.68;2.83;;;;;;;;;;4936265;29;20055;-68
2022/09/22 12:13:19;;;;;;;11.85;5.47;;;;;;;;;;4951910;29;20051;-67
2022/09/22 12:16:08;;;;;;;8.25;3.88;;;;;;;;;;4975099;28;20069;-66
2022/09/22 12:19:19;;;;;;;7.30;2.80;;;;;;;;;;4990364;28;20058;-67
2022/09/22 12:21:55;;;;;;;8.68;2.83;;;;;;;;;;4998643;28;20061;-67
2022/09/22 12:24:27;;;;;;;7.00;3.40;;;;;;;;;;5029820;28;20417;-67
2022/09/22 12:26:57;;;;;;;6.40;3.08;;;;;;;;;;5029828;28;20608;-67
2022/09/22 12:29:29;;;;;;;6.72;2.88;;;;;;;;;;5029990;28;20053;-67
2022/09/22 12:32:01;;;;;;;6.10;2.67;;;;;;;;;;5009761;28;20058;-67
2022/09/22 12:34:40;;;;;;;8.77;2.95;;;;;;;;;;4994101;28;20057;-67
2022/09/22 12:37:38;;;;;;;6.47;3.28;;;;;;;;;;5009569;28;20056;-67
2022/09/22 12:40:14;;;;;;;8.38;2.85;;;;;;;;;;4989946;28;20054;-66
2022/09/22 12:42:50;;;;;;;5.55;2.22;;;;;;;;;;4990127;28;20061;-66
2022/09/22 12:45:37;;;;;;;7.20;2.83;;;;;;;;;;4957648;28;20065;-66
2022/09/22 12:48:21;;;;;;;5.78;2.58;;;;;;;;;;4970198;28;20057;-66
2022/09/22 12:50:52;;;;;;;5.35;2.08;;;;;;;;;;4951139;29;20059;-68
2022/09/22 12:53:22;;;;;;;6.03;3.45;;;;;;;;;;4920023;29;20066;-66
2022/09/22 12:55:57;;;;;;;4.38;2.05;;;;;;;;;;4903494;29;20063;-66
2022/09/22 12:58:29;;;;;;;5.45;2.83;;;;;;;;;;4968872;28;20058;-66
2022/09/22 13:01:31;;;;;;;4.43;2.03;;;;;;;;;;4970143;28;20062;-67
2022/09/22 13:04:17;;;;;;;5.32;2.35;;;;;;;;;;4950657;29;20538;-66
2022/09/22 13:06:47;;;;;;;4.70;2.05;;;;;;;;;;4919000;29;20051;-66
2022/09/22 13:09:25;;;;;;;4.53;2.35;;;;;;;;;;4918950;29;20056;-67
2022/09/22 13:12:22;;;;;;;5.25;2.00;;;;;;;;;;4935120;29;20051;-67
2022/09/22 13:15:08;;;;;;;5.90;2.05;;;;;;;;;;4934699;29;20066;-66
2022/09/22 13:17:43;;;;;;;5.63;2.42;;;;;;;;;;4950682;29;20047;-67
2022/09/22 13:20:18;;;;;;;6.43;2.35;;;;;;;;;;4919167;29;20392;-66
2022/09/22 13:22:49;;;;;;;4.35;2.05;;;;;;;;;;4934517;29;20071;-66
2022/09/22 13:25:30;;;;;;;5.63;2.20;;;;;;;;;;4956731;28;20074;-66
2022/09/22 13:28:15;;;;;;;4.20;2.05;;;;;;;;;;4975179;28;20054;-66
2022/09/22 13:30:57;;;;;;;5.85;2.42;;;;;;;;;;4989511;28;20086;-66
2022/09/22 13:33:34;;;;;;;3.90;1.80;;;;;;;;;;4981360;28;20055;-67
2022/09/22 13:36:13;;;;;;;7.38;1.70;;;;;;;;;;4950832;28;20059;-67
2022/09/22 13:38:50;;;;;;;3.78;1.60;;;;;;;;;;4940592;29;20054;-67
2022/09/22 13:41:26;;;;;;;3.33;1.60;;;;;;;;;;4984269;28;20433;-67
2022/09/22 13:44:06;;;;;;;2.88;1.55;;;;;;;;;;5010855;28;20046;-67
2022/09/22 13:46:39;;;;;;;4.18;1.23;;;;;;;;;;5013061;28;20058;-68
2022/09/22 13:49:19;;;;;;;2.67;1.33;;;;;;;;;;4979948;28;20050;-68
2022/09/22 13:51:57;;;;;;;3.92;1.48;;;;;;;;;;5013004;28;20058;-67
2022/09/22 13:54:31;;;;;;;2.70;1.27;;;;;;;;;;5002631;28;20080;-68
2022/09/22 13:57:07;;;;;;;2.83;1.30;;;;;;;;;;5019269;28;20049;-67
2022/09/22 13:59:40;;;;;;;3.25;1.17;;;;;;;;;;5052499;28;20048;-69
2022/09/22 14:02:12;;;;;;;6.35;1.40;;;;;;;;;;5032055;28;20060;-68
2022/09/22 14:04:51;;;;;;;2.78;1.13;;;;;;;;;;5032284;28;20414;-67
2022/09/22 14:07:25;;;;;;;2.67;1.20;;;;;;;;;;5015546;28;20065;-69
2022/09/22 14:09:57;;;;;;;2.22;1.23;;;;;;;;;;5000878;28;20548;-68
2022/09/22 14:12:27;;;;;;;;;;;;;;;;;;4993088;28;20066;-68
2022/09/22 14:15:35;;;;;;;3.08;1.35;;;;;;;;;;4992398;28;19941;-69
2022/09/22 14:18:25;;;;;;;3.05;1.05;;;;;;;;;;4992748;28;20410;-69
2022/09/22 14:20:57;;;;;;;2.05;1.08;;;;;;;;;;4992818;28;20410;-68
2022/09/22 14:23:31;;;;;;;3.15;1.00;;;;;;;;;;4992472;28;20054;-67
2022/09/22 14:26:24;;;;;;;1.75;1.00;;;;;;;;;;4992483;28;20054;-68
2022/09/22 14:28:57;;;;;;;3.00;1.10;;;;;;;;;;4947638;28;20527;-69
2022/09/22 14:31:31;;;;;;;2.53;1.05;;;;;;;;;;4934646;29;20420;-67
2022/09/22 14:34:06;;;;;;;3.40;1.45;;;;;;;;;;4949597;28;20063;-68
2022/09/22 14:36:37;;;;;;;1.95;1.10;;;;;;;;;;4934586;29;20065;-68
2022/09/22 14:39:18;;;;;;;3.05;1.42;;;;;;;;;;4938425;28;20051;-68
2022/09/22 14:41:57;;;;;;;4.07;1.30;;;;;;;;;;4953710;28;20062;-68
2022/09/22 14:44:50;;;;;;;3.08;1.30;;;;;;;;;;4964378;28;20059;-67
2022/09/22 14:47:25;;;;;;;3.55;1.70;;;;;;;;;;4992298;28;20053;-67
2022/09/22 14:50:25;;;;;;;3.35;1.50;;;;;;;;;;5009294;28;20077;-67
2022/09/22 14:53:08;;;;;;;3.20;1.63;;;;;;;;;;4991816;28;20085;-70
2022/09/22 14:55:43;;;;;;;3.35;1.42;;;;;;;;;;4990738;28;20066;-68
2022/09/22 14:58:25;;;;;;;3.28;1.02;;;;;;;;;;4991959;28;20054;-67
2022/09/22 15:04:01;;;;;;;4.43;1.10;;;;;;;;;;4905579;29;20047;-66
2022/09/22 15:06:34;;;;;;;2.97;1.20;;;;;;;;;;4991051;28;20061;-67
2022/09/22 15:09:05;;;;;;;3.60;1.38;;;;;;;;;;4962801;28;20057;-67
2022/09/22 15:11:59;;;;;;;3.17;1.15;;;;;;;;;;5011317;28;20042;-67
2022/09/22 15:14:41;;;;;;;1.90;1.10;;;;;;;;;;5011308;28;20742;-68
2022/09/22 15:20:59;;;;;;;2.30;1.02;;;;;;;;;;5011238;28;20053;-67
2022/09/22 15:23:43;;;;;;;2.75;1.10;;;;;;;;;;5011288;28;20065;-67
2022/09/22 15:26:22;;;;;;;2.70;1.10;;;;;;;;;;5010851;28;20058;-68
2022/09/22 15:28:58;;;;;;;2.15;1.33;;;;;;;;;;4973308;28;20061;-68
2022/09/22 15:31:28;;;;;;;1.95;1.00;;;;;;;;;;5030506;28;20501;-68
2022/09/22 15:34:02;;;;;;;3.70;1.23;;;;;;;;;;5030927;28;20579;-68
2022/09/22 15:36:35;;;;;;;2.00;0.95;;;;;;;;;;5046947;28;20477;-68
2022/09/22 15:39:16;;;;;;;4.05;1.20;;;;;;;;;;5059559;28;20052;-68
2022/09/22 15:41:47;;;;;;;1.60;1.05;;;;;;;;;;5037042;28;20063;-69
2022/09/22 15:44:17;;;;;;;2.60;1.13;;;;;;;;;;5070795;28;20052;-68
2022/09/22 15:46:52;;;;;;;2.25;0.98;;;;;;;;;;5070169;28;20059;-70
2022/09/22 15:49:25;;;;;;;4.30;1.20;;;;;;;;;;5070287;28;20532;-69
2022/09/22 15:51:55;;;;;;;2.03;0.90;;;;;;;;;;5070113;28;20060;-70
2022/09/22 15:54:26;;;;;;;2.03;0.90;;;;;;;;;;5036916;28;20064;-69
2022/09/22 15:56:58;;;;;;;2.78;1.02;;;;;;;;;;5070127;28;20623;-66